Time;durP1;ratioP1;P1;durP2;ratioP2;P2;SDS_P1;SDS_P2;PMS_P1;PMS_P2;Temp;Humidity;BMP_temperature;BMP_pressure;BME280_temperature;BME280_humidity;BME280_pressure;Samples;Min_cycle;Max_cycle;Signal;HPM_P1;HPM_P2
2023/06/01 00:01:04;;;;;;;11.40;6.05;;;13.10;99.90;;;;;;5041298;28;20431;-73
2023/06/01 00:03:30;;;;;;;13.38;6.85;;;13.20;99.90;;;;;;5051379;28;20044;-73
2023/06/01 00:05:56;;;;;;;15.52;7.10;;;13.20;99.90;;;;;;5051091;28;20052;-73
2023/06/01 00:08:22;;;;;;;12.82;6.53;;;13.20;99.90;;;;;;5039193;28;20068;-73
2023/06/01 00:10:49;;;;;;;13.43;6.68;;;13.20;99.90;;;;;;5044107;28;20044;-72
2023/06/01 00:13:15;;;;;;;17.20;7.33;;;13.10;99.90;;;;;;5033509;28;20075;-74
2023/06/01 00:15:41;;;;;;;12.57;7.05;;;13.10;99.90;;;;;;5049701;28;20037;-72
2023/06/01 00:18:08;;;;;;;13.77;7.03;;;13.10;99.90;;;;;;5047700;28;20129;-73
2023/06/01 00:20:34;;;;;;;14.30;7.20;;;13.10;99.90;;;;;;5042000;28;20051;-72
2023/06/01 00:23:00;;;;;;;15.25;7.15;;;13.10;99.90;;;;;;5056226;28;20040;-74
2023/06/01 00:25:26;;;;;;;9.98;6.13;;;13.00;99.90;;;;;;5040123;28;20488;-74
2023/06/01 00:27:52;;;;;;;13.30;6.25;;;13.00;99.90;;;;;;5043966;28;20041;-74
2023/06/01 00:30:18;;;;;;;17.85;6.55;;;13.00;99.90;;;;;;5055432;28;20097;-74
2023/06/01 00:32:43;;;;;;;12.95;6.63;;;13.00;99.90;;;;;;5060660;28;22562;-74
2023/06/01 00:35:09;;;;;;;15.23;6.88;;;13.00;99.90;;;;;;5039419;28;20130;-73
2023/06/01 00:37:35;;;;;;;15.90;6.85;;;13.00;99.90;;;;;;5039412;28;20048;-73
2023/06/01 00:40:00;;;;;;;12.48;6.10;;;13.00;99.90;;;;;;5048544;28;20117;-73
2023/06/01 00:42:26;;;;;;;11.98;6.30;;;13.00;99.90;;;;;;5041394;28;20051;-73
2023/06/01 00:44:53;;;;;;;13.85;6.32;;;13.00;99.90;;;;;;5043537;28;20055;-74
2023/06/01 00:47:19;;;;;;;13.35;6.05;;;12.90;99.90;;;;;;5037340;28;20583;-73
2023/06/01 00:49:48;;;;;;;16.13;5.57;;;12.90;99.90;;;;;;5048253;28;20052;-73
2023/06/01 00:52:15;;;;;;;12.60;5.47;;;12.80;99.90;;;;;;5043854;28;20055;-72
2023/06/01 00:54:40;;;;;;;13.52;6.28;;;12.80;99.90;;;;;;5047596;28;20089;-72
2023/06/01 00:57:07;;;;;;;13.38;6.03;;;12.70;99.90;;;;;;5044734;28;20057;-73
2023/06/01 00:59:34;;;;;;;12.88;6.18;;;12.70;99.90;;;;;;5041315;28;20519;-73
2023/06/01 01:02:00;;;;;;;12.60;6.15;;;12.70;99.90;;;;;;5037409;28;20060;-74
2023/06/01 01:04:25;;;;;;;13.43;5.47;;;12.70;99.90;;;;;;5055841;28;20060;-74
2023/06/01 01:07:20;;;;;;;11.32;5.97;;;12.60;99.90;;;;;;5061115;28;20153;-73
2023/06/01 01:10:05;;;;;;;14.18;6.05;;;12.60;99.90;;;;;;5044418;28;20487;-72
2023/06/01 01:13:07;;;;;;;13.98;6.20;;;12.70;99.90;;;;;;5041868;28;20095;-72
2023/06/01 01:15:43;;;;;;;21.10;6.35;;;12.70;99.90;;;;;;5043851;28;20056;-73
2023/06/01 01:18:17;;;;;;;13.82;6.03;;;12.70;99.90;;;;;;5039651;28;20128;-71
2023/06/01 01:20:46;;;;;;;16.20;6.78;;;12.70;99.90;;;;;;5035218;28;20167;-74
2023/06/01 01:23:16;;;;;;;17.65;7.00;;;12.70;99.90;;;;;;5035402;28;20040;-72
2023/06/01 01:26:00;;;;;;;17.20;6.47;;;12.70;99.90;;;;;;5035316;28;21036;-73
2023/06/01 01:28:47;;;;;;;13.05;7.22;;;12.80;99.90;;;;;;5039559;28;20058;-73
2023/06/01 01:31:15;;;;;;;;;;;12.70;99.90;;;;;;5051574;28;20055;-74
2023/06/01 01:33:41;;;;;;;;;;;12.70;99.90;;;;;;5042235;28;19931;-73
2023/06/01 01:36:08;;;;;;;17.67;6.53;;;12.70;99.90;;;;;;5039879;28;19924;-73
2023/06/01 01:38:35;;;;;;;15.02;6.13;;;12.70;99.90;;;;;;5036010;28;20098;-73
2023/06/01 01:41:01;;;;;;;15.45;6.70;;;12.70;99.90;;;;;;5048202;28;20084;-71
2023/06/01 01:43:27;;;;;;;12.53;6.07;;;12.60;99.90;;;;;;5046349;28;20169;-72
2023/06/01 01:46:07;;;;;;;15.55;7.00;;;12.60;99.90;;;;;;5045899;28;20514;-74
2023/06/01 01:48:40;;;;;;;18.50;7.22;;;12.60;99.90;;;;;;5039777;28;20037;-71
2023/06/01 01:51:24;;;;;;;18.73;6.95;;;12.60;99.90;;;;;;5039690;28;20043;-72
2023/06/01 01:53:52;;;;;;;12.07;6.55;;;12.60;99.90;;;;;;5035282;28;20045;-74
2023/06/01 01:56:19;;;;;;;13.93;7.57;;;12.60;99.90;;;;;;5039877;28;20045;-72
2023/06/01 01:58:47;;;;;;;14.25;7.88;;;12.60;99.90;;;;;;5043474;28;20175;-72
2023/06/01 02:01:13;;;;;;;13.23;7.03;;;12.60;99.90;;;;;;5043226;28;20041;-74
2023/06/01 02:03:38;;;;;;;14.15;7.28;;;12.60;99.90;;;;;;5044185;28;20060;-73
2023/06/01 02:06:04;;;;;;;17.58;7.93;;;12.50;99.90;;;;;;5054177;28;20465;-74
2023/06/01 02:08:30;;;;;;;15.50;7.82;;;12.50;99.90;;;;;;5055512;28;20056;-73
2023/06/01 02:10:55;;;;;;;12.73;7.60;;;12.50;99.90;;;;;;5033907;28;20620;-73
2023/06/01 02:13:21;;;;;;;15.52;7.30;;;12.50;99.90;;;;;;5044648;28;20109;-74
2023/06/01 02:15:47;;;;;;;21.95;7.95;;;12.50;99.90;;;;;;5041307;28;20412;-74
2023/06/01 02:18:17;;;;;;;18.10;7.90;;;12.50;99.90;;;;;;5037959;28;20070;-74
2023/06/01 02:20:47;;;;;;;18.45;8.48;;;12.50;99.90;;;;;;5050357;28;20050;-74
2023/06/01 02:23:12;;;;;;;17.40;7.97;;;12.40;99.90;;;;;;5041524;28;20048;-73
2023/06/01 02:25:38;;;;;;;16.88;7.95;;;12.40;99.90;;;;;;5041175;28;20037;-74
2023/06/01 02:28:04;;;;;;;14.40;7.53;;;12.40;99.90;;;;;;5037329;28;21217;-74
2023/06/01 02:30:30;;;;;;;15.23;7.93;;;12.40;99.90;;;;;;5037515;28;20044;-74
2023/06/01 02:32:55;;;;;;;19.67;8.20;;;12.40;99.90;;;;;;5039210;28;20477;-73
2023/06/01 02:35:21;;;;;;;17.65;7.85;;;12.40;99.90;;;;;;5043923;28;20041;-73
2023/06/01 02:37:47;;;;;;;15.70;7.90;;;12.50;99.90;;;;;;5038804;28;20045;-74
2023/06/01 02:40:12;;;;;;;16.25;8.23;;;12.50;99.90;;;;;;5048573;28;20052;-73
2023/06/01 02:42:38;;;;;;;16.42;8.63;;;12.50;99.90;;;;;;5042655;28;20048;-73
2023/06/01 02:45:06;;;;;;;16.50;8.15;;;12.50;99.90;;;;;;5044961;28;20040;-73
2023/06/01 02:47:31;;;;;;;;;;;12.50;99.90;;;;;;5059224;28;20052;-72
2023/06/01 02:49:57;;;;;;;16.13;8.40;;;12.40;99.90;;;;;;5046505;28;19923;-72
2023/06/01 02:52:23;;;;;;;16.92;8.80;;;12.40;99.90;;;;;;5047679;28;20044;-72
2023/06/01 02:54:48;;;;;;;14.68;7.25;;;12.40;99.90;;;;;;5032437;28;20033;-72
2023/06/01 02:57:14;;;;;;;14.40;7.80;;;12.50;99.90;;;;;;5036231;28;20048;-71
2023/06/01 02:59:40;;;;;;;20.75;8.05;;;12.50;99.90;;;;;;5032612;28;20040;-73
2023/06/01 03:02:06;;;;;;;16.50;8.18;;;12.50;99.90;;;;;;5052059;28;20056;-73
2023/06/01 03:04:32;;;;;;;13.90;7.28;;;12.50;99.90;;;;;;5054103;28;20099;-71
2023/06/01 03:06:59;;;;;;;16.02;8.38;;;12.50;99.90;;;;;;5038267;28;20036;-71
2023/06/01 03:09:24;;;;;;;16.48;8.55;;;12.50;99.90;;;;;;5037019;28;20518;-71
2023/06/01 03:11:51;;;;;;;15.65;8.27;;;12.50;99.90;;;;;;5044330;28;20052;-70
2023/06/01 03:14:16;;;;;;;14.68;8.27;;;12.40;99.90;;;;;;5042645;28;20510;-71
2023/06/01 03:16:42;;;;;;;19.42;8.52;;;12.40;99.90;;;;;;5035551;28;20045;-72
2023/06/01 03:19:07;;;;;;;14.55;7.90;;;12.40;99.90;;;;;;5033224;28;20049;-71
2023/06/01 03:21:33;;;;;;;16.02;8.40;;;12.40;99.90;;;;;;5054054;28;20458;-72
2023/06/01 03:23:59;;;;;;;15.25;8.70;;;12.40;99.90;;;;;;5037020;28;20048;-71
2023/06/01 03:26:25;;;;;;;14.00;8.50;;;12.40;99.90;;;;;;5034479;28;20053;-71
2023/06/01 03:28:51;;;;;;;18.38;8.98;;;12.30;99.90;;;;;;5045248;28;20052;-72
2023/06/01 03:31:16;;;;;;;17.40;8.35;;;12.40;99.90;;;;;;5052371;28;20044;-71
2023/06/01 03:33:42;;;;;;;18.85;8.90;;;12.30;99.90;;;;;;5054426;28;20079;-71
2023/06/01 03:36:08;;;;;;;14.70;8.45;;;12.40;99.90;;;;;;5051269;28;20052;-71
2023/06/01 03:38:34;;;;;;;15.93;7.88;;;12.40;99.90;;;;;;5036139;28;20438;-72
2023/06/01 03:41:00;;;;;;;16.52;7.88;;;12.40;99.90;;;;;;5033549;28;20128;-70
2023/06/01 03:43:26;;;;;;;13.15;7.72;;;12.40;99.90;;;;;;5059722;28;20048;-72
2023/06/01 03:45:52;;;;;;;16.02;7.40;;;12.30;99.90;;;;;;5046430;28;20057;-71
2023/06/01 03:48:18;;;;;;;14.23;7.53;;;12.40;99.90;;;;;;5048613;28;20075;-71
2023/06/01 03:50:45;;;;;;;15.15;7.50;;;12.30;99.90;;;;;;5039134;28;20545;-71
2023/06/01 03:53:11;;;;;;;12.48;7.15;;;12.30;99.90;;;;;;5036670;28;20049;-71
2023/06/01 03:55:37;;;;;;;13.50;7.57;;;12.30;99.90;;;;;;5038957;28;20119;-72
2023/06/01 03:58:04;;;;;;;12.52;6.70;;;12.30;99.90;;;;;;5062845;28;20052;-72
2023/06/01 04:00:30;;;;;;;11.38;6.10;;;12.30;99.90;;;;;;5039662;28;20045;-71
2023/06/01 04:02:58;;;;;;;13.50;6.75;;;12.30;99.90;;;;;;5059948;28;20089;-71
2023/06/01 04:05:25;;;;;;;14.60;7.40;;;12.30;99.90;;;;;;5042409;28;20415;-71
2023/06/01 04:07:52;;;;;;;14.40;7.40;;;12.30;99.90;;;;;;5042537;28;20446;-71
2023/06/01 04:10:18;;;;;;;16.40;7.60;;;12.30;99.90;;;;;;5038301;28;20052;-72
2023/06/01 04:12:45;;;;;;;13.32;6.50;;;12.30;99.90;;;;;;5043393;28;20052;-71
2023/06/01 04:15:13;;;;;;;11.48;6.38;;;12.30;99.90;;;;;;5036820;28;20048;-71
2023/06/01 04:17:39;;;;;;;10.80;6.13;;;12.30;99.90;;;;;;5056021;28;20048;-71
2023/06/01 04:20:09;;;;;;;10.77;5.38;;;12.30;99.90;;;;;;5048904;28;20052;-71
2023/06/01 04:22:35;;;;;;;14.00;6.22;;;12.30;99.90;;;;;;5043268;28;20116;-72
2023/06/01 04:25:02;;;;;;;11.20;6.18;;;12.30;99.90;;;;;;5046183;28;20120;-71
2023/06/01 04:27:28;;;;;;;11.68;6.03;;;12.20;99.90;;;;;;5037717;28;20543;-71
2023/06/01 04:29:53;;;;;;;11.05;5.97;;;12.10;99.90;;;;;;5049566;28;20044;-71
2023/06/01 04:32:22;;;;;;;11.52;6.00;;;12.20;99.90;;;;;;5055644;28;20388;-71
2023/06/01 04:34:49;;;;;;;8.50;5.50;;;12.20;99.90;;;;;;5055623;28;20116;-71
2023/06/01 04:37:20;;;;;;;14.45;7.00;;;12.10;99.90;;;;;;5043936;28;21895;-71
2023/06/01 04:39:51;;;;;;;13.50;7.15;;;12.10;99.90;;;;;;5038172;28;20155;-71
2023/06/01 04:42:18;;;;;;;12.80;7.65;;;12.10;99.90;;;;;;5037796;28;20087;-71
2023/06/01 04:44:49;;;;;;;13.98;7.40;;;12.20;99.90;;;;;;5035996;28;20516;-71
2023/06/01 04:47:20;;;;;;;13.05;7.38;;;12.20;99.90;;;;;;5044411;28;20502;-70
2023/06/01 04:49:46;;;;;;;14.85;7.60;;;12.10;99.90;;;;;;5044284;28;20052;-72
2023/06/01 04:52:12;;;;;;;11.18;7.05;;;12.10;99.90;;;;;;5034344;28;20136;-71
2023/06/01 04:54:38;;;;;;;11.57;6.35;;;12.10;99.90;;;;;;5032590;28;20131;-71
2023/06/01 04:57:06;;;;;;;14.60;7.22;;;12.10;99.90;;;;;;5040619;28;20044;-71
2023/06/01 04:59:32;;;;;;;11.68;6.30;;;12.10;99.90;;;;;;5042043;28;20074;-71
2023/06/01 05:01:58;;;;;;;13.48;7.55;;;12.10;99.90;;;;;;5037457;28;20044;-71
2023/06/01 05:04:24;;;;;;;13.50;6.43;;;12.10;99.90;;;;;;5036429;28;20068;-71
2023/06/01 05:06:50;;;;;;;12.70;7.35;;;12.10;99.90;;;;;;5048967;28;20063;-70
2023/06/01 05:09:17;;;;;;;13.13;6.97;;;12.00;99.90;;;;;;5034123;28;21529;-71
2023/06/01 05:11:43;;;;;;;12.52;6.85;;;12.00;99.90;;;;;;5040322;28;20110;-71
2023/06/01 05:14:09;;;;;;;14.85;7.30;;;12.00;99.90;;;;;;5033769;28;20487;-71
2023/06/01 05:16:35;;;;;;;12.70;6.45;;;12.00;99.90;;;;;;5040028;28;20071;-72
2023/06/01 05:19:01;;;;;;;12.20;6.28;;;12.00;99.90;;;;;;5046088;28;21382;-71
2023/06/01 05:21:27;;;;;;;12.07;6.20;;;12.00;99.90;;;;;;5038529;28;20052;-71
2023/06/01 05:23:53;;;;;;;14.70;5.85;;;12.00;99.90;;;;;;5048629;28;20052;-71
2023/06/01 05:26:21;;;;;;;12.88;6.60;;;12.00;99.90;;;;;;5039158;28;20048;-71
2023/06/01 05:28:50;;;;;;;12.40;6.53;;;12.10;99.90;;;;;;5037451;28;20062;-71
2023/06/01 05:31:16;;;;;;;10.30;5.70;;;12.10;99.90;;;;;;5044351;28;20495;-71
2023/06/01 05:33:42;;;;;;;9.50;5.68;;;12.20;99.90;;;;;;5041322;28;20724;-72
2023/06/01 05:36:07;;;;;;;11.88;5.53;;;12.10;99.90;;;;;;5035532;28;20084;-71
2023/06/01 05:38:33;;;;;;;11.75;6.82;;;12.10;99.90;;;;;;5064741;28;20059;-71
2023/06/01 05:40:59;;;;;;;13.27;6.57;;;12.10;99.90;;;;;;5055804;28;20048;-74
2023/06/01 05:43:24;;;;;;;8.35;5.50;;;12.10;99.90;;;;;;5045482;28;20053;-70
2023/06/01 05:45:50;;;;;;;10.27;5.60;;;12.10;99.90;;;;;;5039659;28;20492;-70
2023/06/01 05:48:16;;;;;;;10.57;5.88;;;12.10;99.90;;;;;;5040997;28;20040;-70
2023/06/01 05:50:42;;;;;;;11.55;5.95;;;12.10;99.90;;;;;;5037465;28;20123;-70
2023/06/01 05:53:08;;;;;;;11.02;6.30;;;12.10;99.90;;;;;;5037295;28;20056;-70
2023/06/01 05:55:34;;;;;;;11.13;6.00;;;12.20;99.90;;;;;;5034037;28;20079;-69
2023/06/01 05:58:00;;;;;;;10.10;5.22;;;12.20;99.90;;;;;;5042899;28;20153;-68
2023/06/01 06:00:26;;;;;;;12.80;6.00;;;12.10;99.90;;;;;;5039758;28;21874;-72
2023/06/01 06:02:51;;;;;;;10.70;6.03;;;12.10;99.90;;;;;;5035109;28;20050;-71
2023/06/01 06:05:17;;;;;;;12.77;6.95;;;12.10;99.90;;;;;;5040111;28;20053;-71
2023/06/01 06:07:43;;;;;;;11.10;6.07;;;12.10;99.90;;;;;;5031399;28;20052;-70
2023/06/01 06:10:09;;;;;;;12.40;6.32;;;12.10;99.90;;;;;;5034532;28;20136;-72
2023/06/01 06:12:35;;;;;;;12.98;6.45;;;12.10;99.90;;;;;;5035186;28;20049;-71
2023/06/01 06:15:01;;;;;;;12.27;6.43;;;12.10;99.90;;;;;;5033154;28;20044;-72
2023/06/01 06:17:26;;;;;;;12.77;6.63;;;12.20;99.90;;;;;;5036355;28;20128;-71
2023/06/01 06:19:52;;;;;;;12.05;7.30;;;12.20;99.90;;;;;;5034615;28;20131;-72
2023/06/01 06:22:19;;;;;;;13.38;7.28;;;12.20;99.90;;;;;;5030469;28;20167;-72
2023/06/01 06:24:45;;;;;;;11.97;7.07;;;12.20;99.90;;;;;;5034314;28;20047;-70
2023/06/01 06:27:10;;;;;;;13.27;7.25;;;12.20;99.90;;;;;;5033446;28;20377;-71
2023/06/01 06:29:36;;;;;;;14.75;7.47;;;12.20;99.90;;;;;;5036066;28;20081;-72
2023/06/01 06:32:02;;;;;;;13.82;7.30;;;12.20;99.90;;;;;;5033580;28;20036;-71
2023/06/01 06:34:35;;;;;;;13.30;7.20;;;12.20;99.90;;;;;;5032247;28;20253;-71
2023/06/01 06:37:06;;;;;;;15.18;6.95;;;12.20;99.90;;;;;;5034991;28;20513;-71
2023/06/01 06:39:32;;;;;;;13.25;7.47;;;12.20;99.90;;;;;;5035590;28;20333;-71
2023/06/01 06:41:58;;;;;;;14.00;7.45;;;12.20;99.90;;;;;;5031330;28;20043;-71
2023/06/01 06:44:24;;;;;;;14.00;7.90;;;12.20;99.90;;;;;;5038979;28;20049;-71
2023/06/01 06:46:50;;;;;;;12.65;7.15;;;12.20;99.90;;;;;;5031482;28;20044;-71
2023/06/01 06:49:15;;;;;;;15.32;7.43;;;12.20;99.90;;;;;;5032574;28;20074;-71
2023/06/01 06:51:41;;;;;;;14.02;7.60;;;12.20;99.90;;;;;;5036896;28;20072;-71
2023/06/01 06:54:07;;;;;;;13.82;7.22;;;12.20;99.90;;;;;;5034831;28;20399;-71
2023/06/01 06:56:33;;;;;;;11.02;6.72;;;12.20;99.90;;;;;;5035550;28;20056;-71
2023/06/01 06:58:59;;;;;;;7.40;4.43;;;12.30;99.90;;;;;;5030935;28;20052;-71
2023/06/01 07:01:25;;;;;;;9.57;4.70;;;12.30;99.90;;;;;;5031359;28;20101;-71
2023/06/01 07:03:53;;;;;;;9.40;5.13;;;12.30;99.90;;;;;;5034928;28;20060;-72
2023/06/01 07:06:20;;;;;;;10.40;5.28;;;12.30;99.90;;;;;;5032555;28;20525;-71
2023/06/01 07:08:46;;;;;;;8.65;4.93;;;12.30;99.90;;;;;;5035768;28;20594;-71
2023/06/01 07:11:11;;;;;;;9.35;4.60;;;12.40;99.90;;;;;;5030666;28;20052;-72
2023/06/01 07:13:37;;;;;;;8.27;4.93;;;12.40;99.90;;;;;;5035366;28;20760;-71
2023/06/01 07:16:05;;;;;;;8.30;5.05;;;12.50;99.90;;;;;;5032943;28;20061;-70
2023/06/01 07:18:30;;;;;;;10.43;4.90;;;12.50;99.90;;;;;;5037512;28;20143;-70
2023/06/01 07:20:58;;;;;;;10.00;5.18;;;12.50;99.90;;;;;;5040322;28;20054;-72
2023/06/01 07:23:24;;;;;;;10.05;4.72;;;12.60;99.90;;;;;;5038373;28;20056;-73
2023/06/01 07:25:49;;;;;;;10.50;4.50;;;12.60;99.90;;;;;;5038872;28;20119;-71
2023/06/01 07:28:15;;;;;;;9.35;4.05;;;12.60;99.90;;;;;;5044211;28;20044;-72
2023/06/01 07:30:41;;;;;;;8.85;4.20;;;12.60;99.90;;;;;;5041782;28;20098;-72
2023/06/01 07:33:07;;;;;;;6.68;4.35;;;12.60;99.90;;;;;;5045776;28;20047;-73
2023/06/01 07:35:33;;;;;;;6.60;3.80;;;12.70;99.90;;;;;;5045807;28;20151;-72
2023/06/01 07:38:00;;;;;;;9.57;3.85;;;12.70;99.90;;;;;;5044750;28;20407;-71
2023/06/01 07:40:25;;;;;;;6.78;3.35;;;12.70;99.90;;;;;;5045554;28;20059;-73
2023/06/01 07:42:51;;;;;;;6.65;3.70;;;12.80;99.90;;;;;;5046179;28;20040;-69
2023/06/01 07:45:17;;;;;;;6.82;3.70;;;12.80;99.90;;;;;;5044490;28;21034;-72
2023/06/01 07:47:43;;;;;;;5.80;3.45;;;12.90;99.90;;;;;;5046002;28;20051;-71
2023/06/01 07:50:09;;;;;;;6.18;3.20;;;12.90;99.90;;;;;;5041300;28;20173;-71
2023/06/01 07:52:34;;;;;;;6.03;3.15;;;12.80;99.90;;;;;;5051148;28;20064;-73
2023/06/01 07:55:00;;;;;;;7.32;2.97;;;12.90;99.90;;;;;;5036556;28;20462;-74
2023/06/01 07:57:26;;;;;;;5.00;2.92;;;12.80;99.90;;;;;;5040703;28;20052;-74
2023/06/01 07:59:52;;;;;;;6.07;2.80;;;12.80;99.90;;;;;;5069374;28;20051;-72
2023/06/01 08:02:20;;;;;;;3.33;2.47;;;12.90;99.90;;;;;;5045406;28;20044;-73
2023/06/01 08:04:46;;;;;;;;;;;12.90;99.90;;;;;;5066524;28;20613;-72
2023/06/01 08:07:14;;;;;;;4.15;2.55;;;12.90;99.90;;;;;;5052552;28;20318;-69
2023/06/01 08:09:39;;;;;;;3.35;2.40;;;12.80;99.90;;;;;;5055458;28;20045;-72
2023/06/01 08:12:07;;;;;;;5.03;2.50;;;12.90;99.90;;;;;;5055671;28;20372;-70
2023/06/01 08:14:33;;;;;;;4.05;2.78;;;12.90;99.90;;;;;;5055546;28;20915;-71
2023/06/01 08:17:01;;;;;;;6.15;3.53;;;12.90;99.90;;;;;;5050383;28;20052;-71
2023/06/01 08:19:27;;;;;;;6.15;2.80;;;13.00;99.90;;;;;;5049835;28;20052;-70
2023/06/01 08:21:54;;;;;;;8.80;3.35;;;13.10;99.90;;;;;;5041282;28;20048;-71
2023/06/01 08:24:22;;;;;;;4.50;2.53;;;13.10;99.90;;;;;;5066283;28;20499;-71
2023/06/01 08:26:48;;;;;;;4.25;2.40;;;13.20;99.90;;;;;;5055771;28;20552;-74
2023/06/01 08:29:14;;;;;;;2.92;2.38;;;13.20;99.90;;;;;;5041290;28;20033;-72
2023/06/01 08:31:40;;;;;;;4.45;2.65;;;13.20;99.90;;;;;;5053279;28;20059;-73
2023/06/01 08:34:05;;;;;;;4.65;2.42;;;13.20;99.90;;;;;;5055860;28;21448;-72
2023/06/01 08:36:31;;;;;;;4.10;2.10;;;13.20;99.90;;;;;;5049365;28;20048;-73
2023/06/01 08:38:57;;;;;;;3.83;2.00;;;13.30;99.90;;;;;;5060638;28;20048;-73
2023/06/01 08:41:47;;;;;;;3.63;1.80;;;13.30;99.90;;;;;;5062960;28;20044;-72
2023/06/01 08:44:17;;;;;;;4.72;2.33;;;13.40;99.90;;;;;;5060208;28;20059;-71
2023/06/01 08:46:46;;;;;;;4.35;2.35;;;13.40;99.90;;;;;;5056574;28;20040;-69
2023/06/01 08:49:14;;;;;;;4.32;2.13;;;13.40;99.90;;;;;;5059245;28;20079;-68
2023/06/01 08:51:41;;;;;;;;;;;13.40;99.90;;;;;;5052639;28;20051;-70
2023/06/01 08:54:08;;;;;;;;;;;13.40;99.90;;;;;;5056706;28;19927;-72
2023/06/01 08:56:34;;;;;;;4.82;2.67;;;13.40;99.90;;;;;;5041312;28;19924;-70
2023/06/01 08:59:01;;;;;;;5.07;2.80;;;13.40;99.90;;;;;;5050837;28;20388;-69
2023/06/01 09:01:27;;;;;;;6.37;3.10;;;13.40;99.90;;;;;;5064553;28;20087;-70
2023/06/01 09:03:52;;;;;;;7.90;3.70;;;13.40;99.90;;;;;;5065831;28;20307;-70
2023/06/01 09:06:19;;;;;;;7.40;3.53;;;13.40;99.90;;;;;;5048247;28;20053;-71
2023/06/01 09:08:45;;;;;;;6.45;3.92;;;13.40;99.90;;;;;;5045455;28;20043;-71
2023/06/01 09:11:11;;;;;;;5.85;3.38;;;13.40;99.90;;;;;;5041085;28;20037;-71
2023/06/01 09:13:38;;;;;;;7.28;3.65;;;13.40;99.90;;;;;;5066644;28;20056;-70
2023/06/01 09:16:05;;;;;;;4.85;3.10;;;13.50;99.90;;;;;;5048049;28;20418;-71
2023/06/01 09:18:31;;;;;;;6.45;3.15;;;13.50;99.90;;;;;;5057034;28;20072;-70
2023/06/01 09:21:15;;;;;;;4.45;2.63;;;13.60;99.90;;;;;;5042012;28;20488;-69
2023/06/01 09:23:42;;;;;;;3.83;2.00;;;13.70;99.90;;;;;;5061833;28;20071;-71
2023/06/01 09:26:12;;;;;;;3.20;2.00;;;13.80;99.90;;;;;;5053022;28;20044;-69
2023/06/01 09:28:56;;;;;;;4.40;1.88;;;13.80;99.90;;;;;;5059760;28;20499;-68
2023/06/01 09:31:38;;;;;;;4.18;2.20;;;13.80;99.90;;;;;;5041298;28;20117;-70
2023/06/01 09:34:04;;;;;;;3.75;2.00;;;13.80;99.90;;;;;;5062362;28;20048;-69
2023/06/01 09:36:30;;;;;;;3.80;2.10;;;13.80;99.90;;;;;;5053506;28;20040;-69
2023/06/01 09:39:01;;;;;;;2.97;1.92;;;13.80;99.90;;;;;;5044628;28;20053;-71
2023/06/01 09:41:31;;;;;;;3.13;1.90;;;13.80;99.90;;;;;;5047289;28;20052;-73
2023/06/01 09:43:57;;;;;;;3.63;1.98;;;13.80;99.90;;;;;;5040412;28;20041;-69
2023/06/01 09:46:23;;;;;;;4.83;2.40;;;13.80;99.90;;;;;;5040243;28;20044;-70
2023/06/01 09:49:04;;;;;;;3.97;2.33;;;13.80;99.90;;;;;;5046417;28;20567;-73
2023/06/01 09:51:31;;;;;;;6.68;2.70;;;13.80;99.90;;;;;;5066489;28;20047;-73
2023/06/01 09:53:56;;;;;;;3.83;2.50;;;13.80;99.90;;;;;;5055750;28;20203;-71
2023/06/01 09:56:22;;;;;;;4.80;2.20;;;13.80;99.90;;;;;;5056917;28;20071;-69
2023/06/01 09:58:55;;;;;;;5.35;2.53;;;13.80;99.90;;;;;;5051480;28;20105;-72
2023/06/01 10:01:21;;;;;;;3.75;2.53;;;13.80;99.90;;;;;;5044748;28;20148;-71
2023/06/01 10:03:50;;;;;;;3.50;2.33;;;13.80;99.90;;;;;;5050375;28;20123;-69
2023/06/01 10:06:16;;;;;;;3.22;2.42;;;13.80;99.90;;;;;;5051483;28;21936;-70
2023/06/01 10:08:43;;;;;;;4.05;2.70;;;13.80;99.90;;;;;;5061059;28;20036;-69
2023/06/01 10:11:08;;;;;;;3.42;2.20;;;13.80;99.90;;;;;;5062881;28;20604;-69
2023/06/01 10:13:35;;;;;;;4.22;2.67;;;13.80;99.90;;;;;;5071886;28;20167;-69
2023/06/01 10:16:02;;;;;;;4.13;2.58;;;13.80;99.90;;;;;;5050093;28;20059;-70
2023/06/01 10:18:29;;;;;;;4.70;2.47;;;13.80;99.90;;;;;;5058335;28;20040;-71
2023/06/01 10:20:56;;;;;;;4.60;2.87;;;13.70;99.90;;;;;;5058088;28;21181;-72
2023/06/01 10:23:22;;;;;;;5.57;2.70;;;13.80;99.90;;;;;;5049905;28;20040;-69
2023/06/01 10:25:51;;;;;;;3.42;2.40;;;13.80;99.90;;;;;;5043297;28;20084;-69
2023/06/01 10:28:18;;;;;;;2.58;2.33;;;13.80;99.90;;;;;;5059345;28;20542;-70
2023/06/01 10:30:44;;;;;;;3.40;2.25;;;13.90;99.90;;;;;;5049387;28;21493;-69
2023/06/01 10:33:10;;;;;;;4.22;2.17;;;13.90;99.90;;;;;;5048984;28;20053;-72
2023/06/01 10:35:42;;;;;;;4.15;2.42;;;13.90;99.90;;;;;;5046466;28;20558;-69
2023/06/01 10:38:12;;;;;;;4.10;2.60;;;13.90;99.90;;;;;;5053475;28;20897;-69
2023/06/01 10:40:42;;;;;;;4.32;2.47;;;13.90;99.90;;;;;;5055689;28;20042;-70
2023/06/01 10:43:28;;;;;;;4.93;2.58;;;13.90;99.90;;;;;;5051018;28;20059;-69
2023/06/01 10:45:54;;;;;;;4.53;2.60;;;13.90;99.90;;;;;;5052360;28;20620;-70
2023/06/01 10:48:53;;;;;;;4.28;2.95;;;13.90;99.90;;;;;;5054152;28;20052;-71
2023/06/01 10:51:21;;;;;;;6.05;3.30;;;13.90;99.90;;;;;;5085017;28;20052;-69
2023/06/01 10:53:46;;;;;;;4.75;3.13;;;13.90;99.90;;;;;;5047117;28;20423;-71
2023/06/01 10:56:23;;;;;;;7.45;3.58;;;13.90;99.90;;;;;;5042442;28;20045;-72
2023/06/01 10:59:07;;;;;;;8.20;3.42;;;13.90;99.90;;;;;;5060041;28;20053;-74
2023/06/01 11:01:51;;;;;;;8.30;4.22;;;13.90;99.90;;;;;;5040063;28;20481;-74
2023/06/01 11:04:36;;;;;;;11.70;4.25;;;13.90;99.90;;;;;;5040529;28;20061;-73
2023/06/01 11:07:38;;;;;;;10.13;4.80;;;13.80;99.90;;;;;;5062563;28;20557;-73
2023/06/01 11:10:04;;;;;;;9.50;4.60;;;13.70;99.90;;;;;;5042635;28;20036;-72
2023/06/01 11:13:10;;;;;;;9.90;4.90;;;13.70;99.90;;;;;;5050921;28;20048;-74
2023/06/01 11:15:38;;;;;;;13.57;5.50;;;13.70;99.90;;;;;;5036619;28;20411;-70
2023/06/01 11:18:42;;;;;;;11.38;5.20;;;13.70;99.90;;;;;;5048088;28;20640;-71
2023/06/01 11:21:21;;;;;;;14.93;5.55;;;13.70;99.90;;;;;;5043290;28;20063;-71
2023/06/01 11:23:48;;;;;;;10.02;5.55;;;13.60;99.90;;;;;;5047301;28;20159;-72
2023/06/01 11:26:16;;;;;;;8.17;5.17;;;13.60;99.90;;;;;;5036364;28;20041;-70
2023/06/01 11:28:42;;;;;;;12.57;5.90;;;13.60;99.90;;;;;;5046552;28;20399;-72
2023/06/01 11:31:16;;;;;;;12.75;5.90;;;13.60;99.90;;;;;;5050381;28;20044;-72
2023/06/01 11:33:53;;;;;;;11.23;5.40;;;13.60;99.90;;;;;;5042310;28;20080;-74
2023/06/01 11:36:26;;;;;;;11.88;6.15;;;13.60;99.90;;;;;;5041090;28;20044;-73
2023/06/01 11:38:55;;;;;;;11.38;5.95;;;13.70;99.90;;;;;;5048666;28;20044;-71
2023/06/01 11:41:23;;;;;;;10.93;5.45;;;13.70;99.90;;;;;;5049391;28;20087;-74
2023/06/01 11:43:56;;;;;;;9.32;5.22;;;13.70;99.90;;;;;;5050582;28;20474;-71
2023/06/01 11:46:22;;;;;;;8.57;5.18;;;13.80;99.90;;;;;;5054971;28;20754;-72
2023/06/01 11:49:05;;;;;;;11.68;5.43;;;13.80;99.90;;;;;;5057120;28;20043;-70
2023/06/01 11:51:33;;;;;;;10.65;4.95;;;13.90;99.90;;;;;;5046935;28;20079;-70
2023/06/01 11:54:03;;;;;;;9.75;4.95;;;14.00;99.90;;;;;;5042691;28;20044;-73
2023/06/01 11:56:34;;;;;;;10.15;4.35;;;14.00;99.90;;;;;;5047161;28;20060;-69
2023/06/01 11:59:02;;;;;;;10.77;4.65;;;14.10;99.90;;;;;;5055663;28;20055;-71
2023/06/01 12:01:28;;;;;;;10.40;4.65;;;14.10;99.90;;;;;;5046753;28;20491;-72
2023/06/01 12:03:57;;;;;;;11.73;4.53;;;14.20;99.90;;;;;;5049132;28;20044;-71
2023/06/01 12:06:27;;;;;;;9.55;4.10;;;14.20;99.90;;;;;;5047177;28;20504;-74
2023/06/01 12:08:55;;;;;;;11.32;4.43;;;14.20;99.90;;;;;;5058018;28;20051;-74
2023/06/01 12:11:26;;;;;;;12.50;4.03;;;14.20;99.90;;;;;;5053076;28;20049;-71
2023/06/01 12:13:53;;;;;;;11.40;4.20;;;14.30;99.90;;;;;;5053931;28;20055;-71
2023/06/01 12:16:18;;;;;;;10.77;4.45;;;14.30;99.90;;;;;;5056871;28;20076;-71
2023/06/01 12:18:44;;;;;;;9.75;4.30;;;14.30;99.90;;;;;;5063497;28;20426;-71
2023/06/01 12:21:14;;;;;;;11.52;4.90;;;14.30;99.90;;;;;;5045440;28;20045;-70
2023/06/01 12:23:41;;;;;;;10.88;4.18;;;14.40;99.90;;;;;;5048137;28;20055;-71
2023/06/01 12:26:08;;;;;;;11.05;4.53;;;14.40;99.90;;;;;;5056130;28;20093;-72
2023/06/01 12:28:52;;;;;;;10.97;4.23;;;14.40;99.90;;;;;;5060483;28;20035;-72
2023/06/01 12:31:18;;;;;;;10.48;4.35;;;14.50;99.90;;;;;;5066652;28;20290;-70
2023/06/01 12:33:45;;;;;;;8.40;4.10;;;14.50;99.90;;;;;;5072777;28;20048;-69
2023/06/01 12:36:28;;;;;;;12.32;4.13;;;14.50;99.90;;;;;;5047729;28;20492;-70
2023/06/01 12:38:54;;;;;;;11.98;4.50;;;14.50;99.90;;;;;;5048766;28;20052;-73
2023/06/01 12:41:21;;;;;;;14.30;4.65;;;14.50;99.90;;;;;;5043523;28;20910;-72
2023/06/01 12:43:50;;;;;;;10.27;4.15;;;14.60;99.90;;;;;;5049048;28;20055;-72
2023/06/01 12:46:27;;;;;;;10.95;4.45;;;14.60;99.90;;;;;;5051952;28;20040;-73
2023/06/01 12:49:10;;;;;;;8.98;4.10;;;14.60;99.90;;;;;;5067976;28;20055;-73